Thursday, October 18, 2018, 10:24 AM EDT
Back to Local

KFDK, Frederick, Frederick Municipal Airport

Location: Frederick, MD, United States Lat: 39.417
Local Time: 10:24 AM EDT (14:24 GMT) Lon: -77.374
Time Zone: US/Eastern Elev: 301 ft

Show me the last for .
Show Decoded

2018-10-18 09:47 METAR KFDK 181347Z 31012G16KT 10SM BKN050 11/00 A3046 =
2018-10-18 08:47 METAR KFDK 181247Z 30006KT 10SM BKN060 09/M01 A3045 =
2018-10-18 07:49 METAR KFDK 181149Z 32006KT 10SM BKN060 07/M01 A3043 =
2018-10-18 06:50 METAR KFDK 181050Z AUTO 29005KT 10SM CLR 06/M01 A3040 RMK AO2 =
2018-10-18 06:45 METAR KFDK 181045Z AUTO 30004KT 10SM CLR 06/M01 A3040 RMK AO2 =
2018-10-18 06:25 METAR KFDK 181025Z AUTO 31005KT 10SM CLR 06/M01 A3040 RMK AO2 =
2018-10-18 05:45 METAR KFDK 180945Z AUTO 32007KT 10SM SCT070 08/M01 A3038 RMK AO2 =
2018-10-18 05:25 METAR KFDK 180925Z AUTO 34004KT 10SM BKN070 08/M01 A3038 RMK AO2 =
2018-10-18 05:05 METAR KFDK 180905Z AUTO 00000KT 10SM OVC070 08/00 A3038 RMK AO2 =
2018-10-18 04:45 METAR KFDK 180845Z AUTO 00000KT 10SM OVC070 09/00 A3037 RMK AO2 =
2018-10-18 04:25 METAR KFDK 180825Z AUTO 00000KT 10SM OVC070 09/00 A3036 RMK AO2 =
2018-10-18 04:05 METAR KFDK 180805Z AUTO 00000KT 10SM OVC070 09/00 A3035 RMK AO2 =
2018-10-18 03:45 METAR KFDK 180745Z AUTO 00000KT 10SM OVC070 10/00 A3035 RMK AO2 =
2018-10-18 03:25 METAR KFDK 180725Z AUTO 34009KT 10SM OVC070 10/00 A3035 RMK AO2 =
2018-10-18 03:05 METAR KFDK 180705Z AUTO 34009KT 10SM OVC070 10/00 A3034 RMK AO2 =
2018-10-18 02:45 METAR KFDK 180645Z AUTO 33009G14KT 10SM OVC070 10/00 A3034 RMK AO2 =
2018-10-18 02:25 METAR KFDK 180625Z AUTO 34006KT 10SM OVC070 10/00 A3033 RMK AO2 =
2018-10-18 02:05 METAR KFDK 180605Z AUTO 33006KT 10SM BKN070 10/01 A3032 RMK AO2 =
2018-10-18 01:25 METAR KFDK 180525Z AUTO 34006KT 10SM BKN070 11/01 A3030 RMK AO2 =
2018-10-18 01:05 METAR KFDK 180505Z AUTO 33008KT 10SM SCT060 OVC070 11/01 A3029 RMK AO2 =
2018-10-18 00:25 METAR KFDK 180425Z AUTO 34009G16KT 10SM SCT065 SCT075 12/02 A3028 RMK AO2 =
2018-10-18 00:05 METAR KFDK 180405Z AUTO 34007KT 10SM SCT060 BKN080 11/03 A3026 RMK AO2 =
2018-10-17 23:45 METAR KFDK 180345Z AUTO 35009KT 10SM SCT060 BKN070 12/03 A3025 RMK AO2 =
2018-10-17 23:25 METAR KFDK 180325Z AUTO 34007KT 10SM SCT055 BKN065 OVC080 12/03 A3024 RMK AO2 =
2018-10-17 23:05 METAR KFDK 180305Z AUTO 35007KT 10SM BKN070 13/03 A3023 RMK AO2 =
2018-10-17 22:45 METAR KFDK 180245Z AUTO 34006KT 10SM SCT065 SCT080 12/02 A3022 RMK AO2 =
2018-10-17 22:25 METAR KFDK 180225Z AUTO 33005KT 10SM CLR 12/02 A3021 RMK AO2 =
2018-10-17 22:05 METAR KFDK 180205Z AUTO 31004KT 10SM SCT085 11/02 A3020 RMK AO2 =
2018-10-17 21:45 METAR KFDK 180145Z AUTO 30007KT 10SM SCT085 13/01 A3019 RMK AO2 =
2018-10-17 21:25 METAR KFDK 180125Z AUTO 29009KT 10SM CLR 11/02 A3018 RMK AO2 =
2018-10-17 21:05 METAR KFDK 180105Z AUTO 29006KT 10SM CLR 13/01 A3017 RMK AO2 =
2018-10-17 20:47 METAR KFDK 180047Z 30010KT 10SM SKC 14/01 A3016 =
2018-10-17 19:47 METAR KFDK 172347Z 32006KT 10SM SKC 14/01 A3014 =
2018-10-17 18:47 METAR KFDK 172247Z 30011G16KT 10SM SCT070 15/01 A3011 =
2018-10-17 17:47 METAR KFDK 172147Z 30014G19KT 10SM SCT070 17/01 A3008 =
2018-10-17 16:47 METAR KFDK 172047Z 30015G25KT 10SM SCT070 18/01 A3006 =
2018-10-17 15:47 METAR KFDK 171947Z 28018G28KT 10SM SCT070 19/02 A3004 =
2018-10-17 14:47 METAR KFDK 171847Z 29021G29KT 10SM SCT070 19/03 A3003 =
2018-10-17 13:47 METAR KFDK 171747Z 28012G20KT 10SM SCT060 18/06 A3004 =
2018-10-17 12:47 METAR KFDK 171647Z 28014G22KT 10SM SCT060 17/04 A3007 =
2018-10-17 11:47 METAR KFDK 171547Z 26012G20KT 10SM SKC 16/04 A3010 =
2018-10-17 10:47 METAR KFDK 171447Z 27009G19KT 10SM SKC 14/04 A3012 =

Support USWX by starting your Amazon purchase here.